Etusivu
METAR-TAF:

METAR-TAF

Lentoasemat :

Jackson, Mississippi, Yhdysvallat

Leveyspiiri: 32-19-11N, Pituuspiiri: 090-04-39W, korkeus merenpinnasta: 105 m

Tämänhetkinen sää

Tämä raportti tehtiin 11 minuuttia sitten, kello 18.54 UTC
Tuuli 14 kn pohjoisesta puuskistuen 23 kn:hen
Lämpötila 3°C
Kosteus 48%
Ilmanpaine 1029 hPa
Näkyvyys: 16.1 km
selkeää

METAR: KJAN 121854Z 35014G23KT 10SM CLR 03/M07 A3039 RMK AO2 PK WND 35028/1815 SLP293 T00281072

Aika: 13:05 (19:05 UTC)

Sääennuste

Tämä raportti tehtiin 1 tunti ja 45 minuuttia sitten, kello 17.20 UTC
Ennuste voimassa 12. päivästä klo 18 UTC - 13. päivään klo 18 UTC
Tuuli 18 kn pohjoisesta puuskistuen 26 kn:hen
Näkyvyys: 10 km
Hajanaisia pilviä 2000 ft:n korkeudessa
From 13. päivästä klo 0000 UTC
Tuuli 9 kn pohjoisen/luoteesta
Näkyvyys: 10 km
selkeää

TAF: KJAN 121720Z 1218/1318 36018G26KT P6SM SCT020 FM130000 34009KT P6SM SKC

Säähavainnot ja -ennusteet yli 4000 lentoasemalta (METAR- ja TAF-raportit).

Käytössä olevat sääasemat on merkitty karttaan keltaisilla ja punaisilla pisteillä.

Aseta hiiri pisteen päälle nähdäksesi sääaseman nimen.

Klikkaa sitten nähdäksesi säähavainnot ja -ennusteet.

Kartan vaihtaminen: klikkaa mustalla rastilla varustettuja vihreitä pisteitä, niin voit zoomata sisään; viivalla varustettua vihreää pistettä, niin voit zoomata ulos tai vihreitä nuolia, niin pääset viereisille kartoille.


METAR-TAF: